Time;durP1;ratioP1;P1;durP2;ratioP2;P2;SDS_P1;SDS_P2;PMS_P1;PMS_P2;Temp;Humidity;BMP_temperature;BMP_pressure;BME280_temperature;BME280_humidity;BME280_pressure;Samples;Min_cycle;Max_cycle;Signal;HPM_P1;HPM_P2
2021/12/27 00:00:04;;;;;;;72.55;28.80;;;0.50;99.90;;;;;;5002391;28;20070;-86
2021/12/27 00:02:37;;;;;;;;;;;0.60;99.90;;;;;;5006776;28;20050;-85
2021/12/27 00:05:04;;;;;;;82.70;28.60;;;0.60;99.90;;;;;;5007066;28;19917;-87
2021/12/27 00:07:29;;;;;;;73.97;28.15;;;0.60;99.90;;;;;;5012992;28;20018;-86
2021/12/27 00:09:55;;;;;;;74.53;27.95;;;0.60;99.90;;;;;;5017227;28;20153;-86
2021/12/27 00:12:21;;;;;;;76.65;27.88;;;0.60;99.90;;;;;;5012203;28;20022;-86
2021/12/27 00:14:47;;;;;;;78.65;28.40;;;0.50;99.90;;;;;;5010011;28;20035;-86
2021/12/27 00:17:12;;;;;;;68.03;27.45;;;0.50;99.90;;;;;;5007010;28;20049;-84
2021/12/27 00:19:38;;;;;;;85.32;31.13;;;0.50;99.90;;;;;;5005903;28;20034;-82
2021/12/27 00:22:04;;;;;;;76.78;29.52;;;0.50;99.90;;;;;;5016277;28;20014;-82
2021/12/27 00:24:30;;;;;;;80.40;30.30;;;0.60;99.90;;;;;;5017823;28;20034;-83
2021/12/27 00:26:56;;;;;;;77.07;30.27;;;0.70;99.90;;;;;;5018398;28;20019;-83
2021/12/27 00:29:22;;;;;;;73.15;27.77;;;0.70;99.90;;;;;;5017421;28;20074;-84
2021/12/27 00:31:48;;;;;;;72.00;29.23;;;0.60;99.90;;;;;;5018223;28;20046;-80
2021/12/27 00:34:14;;;;;;;77.13;29.92;;;0.60;99.90;;;;;;5011256;28;20038;-81
2021/12/27 00:36:39;;;;;;;80.47;30.77;;;0.60;99.90;;;;;;5011966;28;20027;-81
2021/12/27 00:39:07;;;;;;;71.25;29.38;;;0.70;99.90;;;;;;5016271;28;20041;-82
2021/12/27 00:41:32;;;;;;;78.38;28.00;;;0.70;99.90;;;;;;5014814;28;20022;-83
2021/12/27 00:43:58;;;;;;;73.20;28.73;;;0.70;99.90;;;;;;5014862;28;20025;-82
2021/12/27 00:46:24;;;;;;;70.97;28.15;;;0.80;99.90;;;;;;5015858;28;20015;-81
2021/12/27 00:48:50;;;;;;;80.18;29.70;;;0.80;99.90;;;;;;5012489;28;20065;-83
2021/12/27 00:51:16;;;;;;;77.05;29.02;;;0.70;99.90;;;;;;5004133;28;20073;-83
2021/12/27 00:53:42;;;;;;;88.75;31.33;;;0.70;99.90;;;;;;5003714;28;20438;-83
2021/12/27 00:56:09;;;;;;;74.13;30.30;;;0.60;99.90;;;;;;5006003;28;20029;-83
2021/12/27 00:58:34;;;;;;;83.05;31.83;;;0.60;99.90;;;;;;5006491;28;20035;-85
2021/12/27 01:01:01;;;;;;;81.60;32.20;;;0.60;99.90;;;;;;5001555;28;20037;-84
2021/12/27 01:03:27;;;;;;;75.95;29.77;;;0.60;99.90;;;;;;5003258;28;20035;-81
2021/12/27 01:05:53;;;;;;;84.78;31.58;;;0.50;99.90;;;;;;5008222;28;20176;-83
2021/12/27 01:08:18;;;;;;;74.43;29.67;;;0.50;99.90;;;;;;5007723;28;20069;-83
2021/12/27 01:13:46;;;;;;;74.75;30.70;;;0.50;99.90;;;;;;4994028;28;20066;-80
2021/12/27 01:16:14;;;;;;;77.20;30.50;;;0.50;99.90;;;;;;5007079;28;20111;-83
2021/12/27 01:18:46;;;;;;;80.10;30.15;;;0.50;99.90;;;;;;5004151;28;20015;-82
2021/12/27 01:21:13;;;;;;;79.32;31.83;;;0.50;99.90;;;;;;5001236;28;20034;-85
2021/12/27 01:23:40;;;;;;;81.78;30.08;;;0.50;99.90;;;;;;5000705;28;20475;-83
2021/12/27 01:26:06;;;;;;;77.65;30.77;;;0.50;99.90;;;;;;5005439;28;20030;-82
2021/12/27 01:28:32;;;;;;;81.65;30.13;;;0.60;99.90;;;;;;5001086;28;20034;-81
2021/12/27 01:30:58;;;;;;;78.75;29.20;;;0.70;99.90;;;;;;5002003;28;20036;-82
2021/12/27 01:33:25;;;;;;;77.68;30.77;;;0.60;99.90;;;;;;5002589;28;20022;-81
2021/12/27 01:35:52;;;;;;;80.85;29.42;;;0.60;99.90;;;;;;5001620;28;20109;-82
2021/12/27 01:38:18;;;;;;;73.07;28.75;;;0.60;99.90;;;;;;4999791;28;20026;-83
2021/12/27 01:40:46;;;;;;;80.50;30.08;;;0.60;99.90;;;;;;5000357;28;20026;-83
2021/12/27 01:43:16;;;;;;;79.60;29.80;;;0.70;99.90;;;;;;5000490;28;20084;-81
2021/12/27 01:45:45;;;;;;;85.07;29.95;;;0.60;99.90;;;;;;5000777;28;20030;-82
2021/12/27 01:48:13;;;;;;;73.15;28.40;;;0.70;99.90;;;;;;4999414;28;20030;-83
2021/12/27 01:50:41;;;;;;;80.68;28.58;;;0.70;99.90;;;;;;5001294;28;20038;-83
2021/12/27 01:53:09;;;;;;;78.70;30.23;;;0.70;99.90;;;;;;5001285;28;20046;-84
2021/12/27 01:55:35;;;;;;;78.30;29.15;;;0.70;99.90;;;;;;5003631;28;20035;-83
2021/12/27 01:58:01;;;;;;;72.10;28.50;;;0.70;99.90;;;;;;5002110;28;20032;-82
2021/12/27 02:00:28;;;;;;;85.28;31.35;;;0.60;99.90;;;;;;5005661;28;20057;-81
2021/12/27 02:02:54;;;;;;;74.85;29.63;;;0.60;99.90;;;;;;5096921;23;20518;-89
2021/12/27 02:05:20;;;;;;;82.45;31.08;;;0.60;99.90;;;;;;5016130;28;20129;-85
2021/12/27 02:07:46;;;;;;;86.60;31.17;;;0.60;99.90;;;;;;5013863;28;20041;-87
2021/12/27 02:10:13;;;;;;;78.55;30.77;;;0.60;99.90;;;;;;5009386;28;20053;-86
2021/12/27 02:12:44;;;;;;;82.88;30.85;;;0.60;99.90;;;;;;5009741;28;20085;-88
2021/12/27 02:15:12;;;;;;;77.68;29.00;;;0.50;99.90;;;;;;5009079;28;20034;-87
2021/12/27 02:17:41;;;;;;;74.32;30.85;;;0.50;99.90;;;;;;5010289;28;20019;-85
2021/12/27 02:20:09;;;;;;;69.00;29.10;;;0.60;99.90;;;;;;4989207;28;20548;-86
2021/12/27 02:22:37;;;;;;;86.53;31.67;;;0.60;99.90;;;;;;5008189;28;20023;-86
2021/12/27 02:25:07;;;;;;;79.63;30.10;;;0.60;99.90;;;;;;5007500;28;20022;-86
2021/12/27 02:27:34;;;;;;;82.95;30.55;;;0.60;99.90;;;;;;4993690;28;20094;-87
2021/12/27 02:30:01;;;;;;;82.45;29.95;;;0.60;99.90;;;;;;4997038;28;20034;-87
2021/12/27 02:32:27;;;;;;;76.95;29.95;;;0.50;99.90;;;;;;5013131;28;20077;-88
2021/12/27 02:34:53;;;;;;;76.78;30.25;;;0.60;99.90;;;;;;4996166;28;20026;-86
2021/12/27 02:37:19;;;;;;;79.72;30.42;;;0.60;99.90;;;;;;5006806;28;20041;-86
2021/12/27 02:39:45;;;;;;;82.72;30.38;;;0.60;99.90;;;;;;4989806;28;20057;-86
2021/12/27 02:42:16;;;;;;;73.43;30.58;;;0.60;99.90;;;;;;5003196;28;20072;-86
2021/12/27 02:44:44;;;;;;;80.90;31.58;;;0.70;99.90;;;;;;5007836;28;20053;-87
2021/12/27 02:47:10;;;;;;;73.90;31.83;;;0.60;99.90;;;;;;5011558;28;20385;-87
2021/12/27 02:49:36;;;;;;;85.35;31.25;;;0.60;99.90;;;;;;5011955;28;20035;-87
2021/12/27 02:52:02;;;;;;;83.93;31.80;;;0.60;99.90;;;;;;5012901;28;20038;-88
2021/12/27 02:54:28;;;;;;;74.88;30.38;;;0.50;99.90;;;;;;5011134;28;20045;-88
2021/12/27 02:56:54;;;;;;;86.93;32.47;;;0.50;99.90;;;;;;5012697;28;20014;-87
2021/12/27 02:59:20;;;;;;;84.55;30.73;;;0.50;99.90;;;;;;5016055;28;20107;-88
2021/12/27 03:01:45;;;;;;;96.25;33.13;;;0.50;99.90;;;;;;4999351;28;20038;-86
2021/12/27 03:04:11;;;;;;;82.53;31.98;;;0.60;99.90;;;;;;5014460;28;20046;-87
2021/12/27 03:06:37;;;;;;;86.00;32.05;;;0.60;99.90;;;;;;4998402;28;20094;-87
2021/12/27 03:09:03;;;;;;;86.75;31.88;;;0.70;99.90;;;;;;5013612;28;20034;-86
2021/12/27 03:11:29;;;;;;;80.82;31.80;;;0.60;99.90;;;;;;5015480;28;20030;-86
2021/12/27 03:13:55;;;;;;;85.65;31.38;;;0.60;99.90;;;;;;5015057;28;20054;-85
2021/12/27 03:16:23;;;;;;;89.03;32.97;;;0.60;99.90;;;;;;5012789;28;20030;-89
2021/12/27 03:19:01;;;;;;;81.82;30.33;;;0.50;99.90;;;;;;5010806;28;20038;-86
2021/12/27 03:21:28;;;;;;;82.45;32.50;;;0.60;99.90;;;;;;5009415;28;20088;-86
2021/12/27 03:23:57;;;;;;;91.05;33.22;;;0.60;99.90;;;;;;5006621;28;20023;-85
2021/12/27 03:26:23;;;;;;;87.95;31.77;;;0.60;99.90;;;;;;5008884;28;20046;-85
2021/12/27 03:28:52;;;;;;;92.18;32.35;;;0.60;99.90;;;;;;4997774;28;20070;-85
2021/12/27 03:31:19;;;;;;;85.57;31.67;;;0.70;99.90;;;;;;5015671;28;20025;-86
2021/12/27 03:33:45;;;;;;;81.00;31.25;;;0.60;99.90;;;;;;5015067;28;20014;-87
2021/12/27 03:36:11;;;;;;;91.43;32.97;;;0.60;99.90;;;;;;5015450;28;20026;-86
2021/12/27 03:38:49;;;;;;;84.75;32.95;;;0.60;99.90;;;;;;5016308;28;20030;-87
2021/12/27 03:41:19;;;;;;;84.88;31.80;;;0.60;99.90;;;;;;5014791;28;20030;-88
2021/12/27 03:43:45;;;;;;;90.90;31.95;;;0.60;99.90;;;;;;5016972;28;20034;-87
2021/12/27 03:46:12;;;;;;;83.40;32.65;;;0.60;99.90;;;;;;5002436;28;20019;-87
2021/12/27 03:48:38;;;;;;;82.18;32.47;;;0.60;99.90;;;;;;5019003;28;20023;-87
2021/12/27 03:51:05;;;;;;;91.93;32.58;;;0.60;99.90;;;;;;5002747;28;20050;-86
2021/12/27 03:53:33;;;;;;;90.97;34.22;;;0.70;99.90;;;;;;5021166;28;20042;-87
2021/12/27 03:55:59;;;;;;;88.38;33.67;;;0.70;99.90;;;;;;4995888;28;20023;-87
2021/12/27 03:58:33;;;;;;;94.40;32.35;;;0.70;99.90;;;;;;5016160;28;20026;-87
2021/12/27 04:01:15;;;;;;;79.00;33.03;;;0.60;99.90;;;;;;5018006;28;20034;-87
2021/12/27 04:03:47;;;;;;;90.22;34.28;;;0.70;99.90;;;;;;5013763;28;20406;-88
2021/12/27 04:06:17;;;;;;;83.95;32.58;;;0.60;99.90;;;;;;5005576;28;20034;-85
2021/12/27 04:08:43;;;;;;;86.43;32.60;;;0.50;99.90;;;;;;5007933;28;20030;-84
2021/12/27 04:11:09;;;;;;;81.40;32.65;;;0.50;99.90;;;;;;5007755;28;20058;-85
2021/12/27 04:13:35;;;;;;;84.15;31.38;;;0.50;99.90;;;;;;5009242;28;20026;-86
2021/12/27 04:16:01;;;;;;;84.15;33.60;;;0.60;99.90;;;;;;5010783;28;20032;-85
2021/12/27 04:18:27;;;;;;;85.78;32.95;;;0.60;99.90;;;;;;5007895;28;20465;-86
2021/12/27 04:20:53;;;;;;;88.22;32.28;;;0.60;99.90;;;;;;5007864;28;20037;-86
2021/12/27 04:23:19;;;;;;;83.95;31.42;;;0.60;99.90;;;;;;5014317;28;20026;-86
2021/12/27 04:25:45;;;;;;;88.35;33.40;;;0.50;99.90;;;;;;5003920;28;20065;-87
2021/12/27 04:28:12;;;;;;;82.45;31.60;;;0.50;99.90;;;;;;5020718;28;20037;-86
2021/12/27 04:30:39;;;;;;;81.07;31.00;;;0.50;99.90;;;;;;5000851;28;20026;-87
2021/12/27 04:33:06;;;;;;;83.60;33.00;;;0.60;99.90;;;;;;5018305;28;20014;-85
2021/12/27 04:35:32;;;;;;;84.60;31.73;;;0.50;99.90;;;;;;5018304;28;20034;-86
2021/12/27 04:37:59;;;;;;;92.63;32.22;;;0.50;99.90;;;;;;5017038;28;20049;-86
2021/12/27 04:40:29;;;;;;;88.22;32.00;;;0.60;99.90;;;;;;5017085;28;20027;-87
2021/12/27 04:43:00;;;;;;;88.18;32.47;;;0.60;99.90;;;;;;5019680;28;20023;-87
2021/12/27 04:45:26;;;;;;;80.20;32.40;;;0.60;99.90;;;;;;5020290;28;20053;-87
2021/12/27 04:47:52;;;;;;;85.20;34.40;;;0.60;99.90;;;;;;5002370;28;20030;-86
2021/12/27 04:50:19;;;;;;;84.47;31.52;;;0.60;99.90;;;;;;5017816;28;20042;-88
2021/12/27 04:52:47;;;;;;;80.35;31.77;;;0.70;99.90;;;;;;5017762;28;20030;-88
2021/12/27 04:55:12;;;;;;;78.05;31.58;;;0.70;99.90;;;;;;5019302;28;20046;-85
2021/12/27 04:57:38;;;;;;;81.18;31.70;;;0.70;99.90;;;;;;5018860;28;20018;-86
2021/12/27 05:00:07;;;;;;;84.15;32.90;;;0.60;99.90;;;;;;5018601;28;20018;-86
2021/12/27 05:02:33;;;;;;;91.78;33.38;;;0.70;99.90;;;;;;5003069;28;20035;-86
2021/12/27 05:05:01;;;;;;;94.30;32.92;;;0.70;99.90;;;;;;5020435;28;20015;-87
2021/12/27 05:07:27;;;;;;;91.65;32.17;;;0.70;99.90;;;;;;5020357;28;20014;-88
2021/12/27 05:09:53;;;;;;;75.40;31.15;;;0.70;99.90;;;;;;5020047;28;20034;-88
2021/12/27 05:12:19;;;;;;;87.63;33.08;;;0.70;99.90;;;;;;5020535;28;20019;-88
2021/12/27 05:14:44;;;;;;;82.88;32.80;;;0.70;99.90;;;;;;5020309;28;20026;-89
2021/12/27 05:17:10;;;;;;;84.88;31.92;;;0.70;99.90;;;;;;5020350;28;20148;-88
2021/12/27 05:19:36;;;;;;;88.45;32.60;;;0.70;99.90;;;;;;5020316;28;20017;-87
2021/12/27 05:22:02;;;;;;;93.28;33.13;;;0.70;99.90;;;;;;5003688;28;20022;-88
2021/12/27 05:24:29;;;;;;;80.78;32.33;;;0.70;99.90;;;;;;5020038;28;20010;-85
2021/12/27 05:26:54;;;;;;;82.07;32.45;;;0.70;99.90;;;;;;5002697;28;20022;-87
2021/12/27 05:29:21;;;;;;;89.20;34.50;;;0.70;99.90;;;;;;5019829;28;20038;-88
2021/12/27 05:31:47;;;;;;;88.88;32.22;;;0.80;99.90;;;;;;5019984;28;20299;-88
2021/12/27 05:34:14;;;;;;;84.40;31.98;;;0.80;99.90;;;;;;5019789;28;20061;-88
2021/12/27 05:36:42;;;;;;;81.82;32.83;;;0.80;99.90;;;;;;5019508;28;20071;-89
2021/12/27 05:39:12;;;;;;;91.47;32.97;;;0.80;99.90;;;;;;5019969;28;20034;-89
2021/12/27 05:41:38;;;;;;;94.03;33.92;;;0.80;99.90;;;;;;5002882;28;20026;-89
2021/12/27 05:44:05;;;;;;;82.63;31.30;;;0.80;99.90;;;;;;5019216;28;20034;-88
2021/12/27 05:46:31;;;;;;;89.47;33.22;;;0.80;99.90;;;;;;5018995;28;20018;-88
2021/12/27 05:48:57;;;;;;;91.25;33.38;;;0.70;99.90;;;;;;5018822;28;20022;-88
2021/12/27 05:51:23;;;;;;;88.18;33.53;;;0.70;99.90;;;;;;5002328;28;20042;-86
2021/12/27 05:53:49;;;;;;;83.57;31.70;;;0.70;99.90;;;;;;5018217;28;20034;-86
2021/12/27 05:56:15;;;;;;;87.57;32.83;;;0.70;99.90;;;;;;5017600;28;20018;-88
2021/12/27 05:58:41;;;;;;;85.57;32.15;;;0.70;99.90;;;;;;5017166;28;20114;-86
2021/12/27 06:01:07;;;;;;;81.47;30.73;;;0.70;99.90;;;;;;5018133;28;20078;-87
2021/12/27 06:03:32;;;;;;;86.13;32.17;;;0.70;99.90;;;;;;5017255;28;20089;-85
2021/12/27 06:05:59;;;;;;;88.70;31.83;;;0.70;99.90;;;;;;4998895;28;20014;-88
2021/12/27 06:08:25;;;;;;;78.65;32.20;;;0.70;99.90;;;;;;5017403;28;20038;-86
2021/12/27 06:10:51;;;;;;;85.43;32.03;;;0.70;99.90;;;;;;5017721;28;20053;-88
2021/12/27 06:13:16;;;;;;;90.80;32.75;;;0.70;99.90;;;;;;5017564;28;20026;-87
2021/12/27 06:15:43;;;;;;;94.45;32.45;;;0.70;99.90;;;;;;5017974;28;20030;-88
2021/12/27 06:18:09;;;;;;;79.85;31.95;;;0.70;99.90;;;;;;5016796;28;20112;-87
2021/12/27 06:20:35;;;;;;;79.47;31.60;;;0.70;99.90;;;;;;5000205;28;20556;-86
2021/12/27 06:23:00;;;;;;;80.30;31.25;;;0.70;99.90;;;;;;5016373;28;20026;-87
2021/12/27 06:25:26;;;;;;;92.65;34.72;;;0.70;99.90;;;;;;5016266;28;20053;-87
2021/12/27 06:27:52;;;;;;;81.53;30.73;;;0.70;99.90;;;;;;5016965;28;20049;-88
2021/12/27 06:30:19;;;;;;;81.18;32.97;;;0.80;99.90;;;;;;5016796;28;20042;-85
2021/12/27 06:32:45;;;;;;;83.60;31.90;;;0.80;99.90;;;;;;5015545;28;20031;-87
2021/12/27 06:35:13;;;;;;;88.57;34.20;;;0.80;99.90;;;;;;4996986;28;20026;-87
2021/12/27 06:37:43;;;;;;;83.15;32.65;;;0.70;99.90;;;;;;5014005;28;20045;-88
2021/12/27 06:40:11;;;;;;;91.88;35.33;;;0.70;99.90;;;;;;5017754;28;20089;-87
2021/12/27 06:42:37;;;;;;;92.13;33.95;;;0.70;99.90;;;;;;5016070;28;20010;-88
2021/12/27 06:45:04;;;;;;;81.85;31.50;;;0.70;99.90;;;;;;5001223;28;20042;-89
2021/12/27 06:47:30;;;;;;;86.45;32.95;;;0.70;99.90;;;;;;5017195;28;20034;-87
2021/12/27 06:49:56;;;;;;;83.07;32.95;;;0.80;99.90;;;;;;5012293;28;20057;-87
2021/12/27 06:52:23;;;;;;;86.88;31.77;;;0.80;99.90;;;;;;5009288;28;20469;-87
2021/12/27 06:54:49;;;;;;;79.38;31.02;;;0.80;99.90;;;;;;4997557;28;20022;-86
2021/12/27 06:57:16;;;;;;;82.72;32.58;;;0.90;99.90;;;;;;5015322;28;20106;-88
2021/12/27 06:59:41;;;;;;;80.68;30.42;;;0.90;99.90;;;;;;5016911;28;20018;-87
2021/12/27 07:02:08;;;;;;;78.20;30.80;;;0.90;99.90;;;;;;5015796;28;20116;-87
2021/12/27 07:04:34;;;;;;;78.68;31.50;;;1.00;99.90;;;;;;5014375;28;20026;-86
2021/12/27 07:07:00;;;;;;;81.38;30.80;;;1.00;99.90;;;;;;5013989;28;20037;-87
2021/12/27 07:09:26;;;;;;;83.78;30.60;;;1.00;99.90;;;;;;4998978;28;20018;-86
2021/12/27 07:11:52;;;;;;;75.15;29.38;;;1.00;99.90;;;;;;5015674;28;20034;-86
2021/12/27 07:14:18;;;;;;;77.53;30.35;;;0.90;99.90;;;;;;5016789;28;20059;-87
2021/12/27 07:16:44;;;;;;;82.20;30.55;;;1.00;99.90;;;;;;5014524;28;20046;-85
2021/12/27 07:19:10;;;;;;;79.28;31.10;;;1.00;99.90;;;;;;5020066;28;20034;-89
2021/12/27 07:21:36;;;;;;;71.15;28.33;;;1.10;99.90;;;;;;5015589;28;20122;-86
2021/12/27 07:24:04;;;;;;;75.20;31.00;;;1.10;99.90;;;;;;5010348;28;20022;-87
2021/12/27 07:26:30;;;;;;;73.68;28.15;;;1.10;99.90;;;;;;5011492;28;20094;-86
2021/12/27 07:28:56;;;;;;;75.65;28.23;;;1.20;99.90;;;;;;5013314;28;20023;-86
2021/12/27 07:31:26;;;;;;;73.32;27.75;;;1.20;99.90;;;;;;5021290;28;20026;-90
2021/12/27 07:33:52;;;;;;;65.28;27.55;;;1.30;99.90;;;;;;5021425;28;20030;-90
2021/12/27 07:36:18;;;;;;;68.50;27.10;;;1.20;99.90;;;;;;5021883;28;20041;-90
2021/12/27 07:38:44;;;;;;;73.88;27.70;;;1.20;99.90;;;;;;5021963;28;20038;-89
2021/12/27 07:41:10;;;;;;;69.30;27.83;;;1.20;99.90;;;;;;5022456;28;20074;-88
2021/12/27 07:43:36;;;;;;;65.05;27.15;;;1.30;99.90;;;;;;5022421;28;20014;-87
2021/12/27 07:46:02;;;;;;;59.10;24.48;;;1.40;99.90;;;;;;5021623;28;20050;-88
2021/12/27 07:48:28;;;;;;;65.68;26.10;;;1.50;99.90;;;;;;5022049;28;20018;-85
2021/12/27 07:50:54;;;;;;;61.28;25.27;;;1.50;99.90;;;;;;5020874;28;20102;-87
2021/12/27 07:53:20;;;;;;;69.00;26.73;;;1.50;99.90;;;;;;5021905;28;20074;-86
2021/12/27 07:55:51;;;;;;;62.38;26.33;;;1.50;99.90;;;;;;5021209;28;20034;-87
2021/12/27 07:58:17;;;;;;;66.88;26.15;;;1.50;99.90;;;;;;5021177;28;20058;-86
2021/12/27 08:00:45;;;;;;;57.35;23.65;;;1.60;99.90;;;;;;5021860;28;20022;-87
2021/12/27 08:03:13;;;;;;;62.80;24.45;;;1.60;99.90;;;;;;5020465;28;20034;-82
2021/12/27 08:05:39;;;;;;;57.17;24.13;;;1.60;99.90;;;;;;5021064;28;20348;-83
2021/12/27 08:08:05;;;;;;;55.15;24.13;;;1.70;99.90;;;;;;5021318;28;20038;-83
2021/12/27 08:10:31;;;;;;;62.92;24.63;;;1.70;99.90;;;;;;5021117;28;20065;-84
2021/12/27 08:12:56;;;;;;;62.60;24.52;;;1.70;99.90;;;;;;5020254;28;20046;-84
2021/12/27 08:15:22;;;;;;;53.85;22.75;;;1.70;99.90;;;;;;5019763;28;20035;-85
2021/12/27 08:17:50;;;;;;;53.05;22.38;;;1.80;99.90;;;;;;5020532;28;20058;-82
2021/12/27 08:20:16;;;;;;;50.88;21.90;;;1.90;99.90;;;;;;5020758;28;20037;-83
2021/12/27 08:22:42;;;;;;;56.35;23.10;;;2.00;99.90;;;;;;5019275;28;20022;-82
2021/12/27 08:25:08;;;;;;;54.42;23.05;;;2.00;99.90;;;;;;5020392;28;20051;-83
2021/12/27 08:27:37;;;;;;;57.08;21.63;;;2.10;99.90;;;;;;5019698;28;20046;-83
2021/12/27 08:30:05;;;;;;;53.42;22.50;;;2.10;99.90;;;;;;5019244;28;20073;-84
2021/12/27 08:32:37;;;;;;;53.83;22.50;;;2.20;99.90;;;;;;5020230;28;20018;-83
2021/12/27 08:35:04;;;;;;;49.00;20.83;;;2.10;99.90;;;;;;5019759;28;20074;-83
2021/12/27 08:37:30;;;;;;;49.50;20.83;;;2.10;99.90;;;;;;5020067;28;20034;-84
2021/12/27 08:39:57;;;;;;;46.95;21.38;;;2.10;99.90;;;;;;5019495;28;20078;-83
2021/12/27 08:42:23;;;;;;;48.58;20.70;;;2.20;99.90;;;;;;5020121;28;20022;-83
2021/12/27 08:44:49;;;;;;;54.53;20.75;;;2.20;99.90;;;;;;5020272;28;20090;-83
2021/12/27 08:47:16;;;;;;;45.13;19.17;;;2.30;99.90;;;;;;5019213;28;20050;-84
2021/12/27 08:49:43;;;;;;;48.58;19.77;;;2.30;99.90;;;;;;5017270;28;20046;-85
2021/12/27 08:52:09;;;;;;;48.67;19.60;;;2.40;99.90;;;;;;5016316;28;20037;-85
2021/12/27 08:54:34;;;;;;;50.70;20.38;;;2.40;99.90;;;;;;5018171;28;20094;-84
2021/12/27 08:57:03;;;;;;;43.60;18.45;;;2.50;99.90;;;;;;5015559;28;20022;-84
2021/12/27 08:59:29;;;;;;;44.60;19.20;;;2.40;99.90;;;;;;5016272;28;20015;-85
2021/12/27 09:01:54;;;;;;;40.72;18.42;;;2.50;99.90;;;;;;5018495;28;20042;-80
2021/12/27 09:04:20;;;;;;;44.25;17.02;;;2.40;99.90;;;;;;5019048;28;20027;-82
2021/12/27 09:06:46;;;;;;;41.17;19.23;;;2.50;99.90;;;;;;5018769;28;20018;-81
2021/12/27 09:09:12;;;;;;;41.03;18.33;;;2.50;99.90;;;;;;5019901;28;20034;-82
2021/12/27 09:11:38;;;;;;;46.90;19.13;;;2.50;99.90;;;;;;5018918;28;20093;-81
2021/12/27 09:14:04;;;;;;;49.63;18.08;;;2.50;99.90;;;;;;5019376;28;20022;-83
2021/12/27 09:16:29;;;;;;;38.75;17.73;;;2.60;99.90;;;;;;5019822;28;20053;-81
2021/12/27 09:18:56;;;;;;;43.95;18.40;;;2.70;99.90;;;;;;5019771;28;20049;-80
2021/12/27 09:21:21;;;;;;;39.47;17.45;;;2.80;99.90;;;;;;5019176;28;20030;-83
2021/12/27 09:23:47;;;;;;;35.13;16.90;;;3.00;99.90;;;;;;5019375;28;20017;-83
2021/12/27 09:26:13;;;;;;;43.20;17.42;;;3.10;99.90;;;;;;5002990;28;20033;-81
2021/12/27 09:28:39;;;;;;;41.88;16.98;;;3.20;99.90;;;;;;5019339;28;20098;-82
2021/12/27 09:31:04;;;;;;;37.15;18.02;;;3.30;99.90;;;;;;5019206;28;20050;-82
2021/12/27 09:33:30;;;;;;;37.88;16.08;;;3.20;99.90;;;;;;5018792;28;20034;-82
2021/12/27 09:35:56;;;;;;;34.80;15.05;;;3.20;99.90;;;;;;5018872;28;20022;-84
2021/12/27 09:38:22;;;;;;;34.92;15.88;;;3.40;99.90;;;;;;5019333;28;20045;-82
2021/12/27 09:40:48;;;;;;;38.03;16.48;;;3.50;99.90;;;;;;5017986;28;20099;-82
2021/12/27 09:43:14;;;;;;;32.83;15.82;;;3.70;99.90;;;;;;5019092;28;20026;-83
2021/12/27 09:45:40;;;;;;;30.92;15.45;;;3.70;99.90;;;;;;5018305;28;20309;-82
2021/12/27 09:48:06;;;;;;;37.25;15.15;;;3.80;99.90;;;;;;5018756;28;20017;-83
2021/12/27 09:50:42;;;;;;;34.53;15.57;;;3.90;99.90;;;;;;5017966;28;20026;-83
2021/12/27 09:53:08;;;;;;;36.97;15.68;;;4.00;99.90;;;;;;5018655;28;20019;-82
2021/12/27 09:55:35;;;;;;;33.20;15.07;;;4.00;99.90;;;;;;5018833;28;20018;-83
2021/12/27 09:58:01;;;;;;;30.63;15.02;;;4.00;99.90;;;;;;5017984;28;20023;-83
2021/12/27 10:00:27;;;;;;;32.65;14.73;;;4.00;99.90;;;;;;5018457;28;20010;-84
2021/12/27 10:02:56;;;;;;;33.25;15.00;;;4.00;99.90;;;;;;5018204;28;20072;-82
2021/12/27 10:05:24;;;;;;;39.70;15.48;;;4.00;99.90;;;;;;5018743;28;20034;-82
2021/12/27 10:07:50;;;;;;;32.83;14.68;;;3.90;99.90;;;;;;5018182;28;20034;-83
2021/12/27 10:10:17;;;;;;;35.58;15.57;;;3.90;99.90;;;;;;5018178;28;20030;-82
2021/12/27 10:12:43;;;;;;;35.35;13.93;;;3.90;99.90;;;;;;5017203;28;20093;-83
2021/12/27 10:15:12;;;;;;;35.50;14.50;;;3.90;99.90;;;;;;5018132;28;20018;-84
2021/12/27 10:17:41;;;;;;;37.83;14.45;;;3.90;99.90;;;;;;5017585;28;20030;-86
2021/12/27 10:20:21;;;;;;;38.90;14.85;;;4.00;99.90;;;;;;5015344;28;20049;-82
2021/12/27 10:22:54;;;;;;;33.60;13.98;;;4.00;99.90;;;;;;5017100;28;20027;-85
2021/12/27 10:25:28;;;;;;;35.28;15.13;;;4.00;99.90;;;;;;5014776;28;20030;-84
2021/12/27 10:27:56;;;;;;;32.50;13.80;;;4.00;99.90;;;;;;5016787;28;20022;-84
2021/12/27 10:30:25;;;;;;;34.20;14.15;;;4.00;99.90;;;;;;5015685;28;20089;-83
2021/12/27 10:33:24;;;;;;;36.58;15.60;;;4.20;99.90;;;;;;5016260;28;20044;-84
2021/12/27 10:35:54;;;;;;;40.30;15.20;;;4.40;99.90;;;;;;5017118;28;20030;-83
2021/12/27 10:38:32;;;;;;;33.15;14.70;;;4.40;99.90;;;;;;5017573;28;20022;-83
2021/12/27 10:40:59;;;;;;;30.65;14.05;;;4.60;99.90;;;;;;5018086;28;20042;-85
2021/12/27 10:43:38;;;;;;;36.63;14.63;;;4.70;99.90;;;;;;5016721;28;20025;-86
2021/12/27 10:46:16;;;;;;;32.95;13.30;;;4.60;99.90;;;;;;5017665;28;20042;-84
2021/12/27 10:48:46;;;;;;;29.92;13.05;;;4.50;99.90;;;;;;5011771;28;20030;-83
2021/12/27 10:51:13;;;;;;;34.20;14.80;;;4.50;99.90;;;;;;5010209;28;20061;-85
2021/12/27 10:53:51;;;;;;;31.02;14.50;;;4.60;99.90;;;;;;5006674;28;20049;-86
2021/12/27 10:56:20;;;;;;;34.63;14.07;;;4.70;99.90;;;;;;5009323;28;20601;-85
2021/12/27 10:58:57;;;;;;;27.75;13.35;;;4.60;99.90;;;;;;5006276;28;20022;-87
2021/12/27 11:01:26;;;;;;;35.00;14.50;;;4.60;99.90;;;;;;5008153;28;20033;-87
2021/12/27 11:04:00;;;;;;;28.00;14.52;;;4.60;99.90;;;;;;5006652;28;20019;-87
2021/12/27 11:06:30;;;;;;;33.13;14.07;;;4.50;99.90;;;;;;5008557;28;20011;-86
2021/12/27 11:08:57;;;;;;;30.17;14.30;;;4.50;99.90;;;;;;5007958;28;20027;-87
2021/12/27 11:11:25;;;;;;;32.38;14.27;;;4.50;99.90;;;;;;5007777;28;20098;-87
2021/12/27 11:13:53;;;;;;;31.10;14.50;;;4.60;99.90;;;;;;5015246;28;20030;-84
2021/12/27 11:16:19;;;;;;;30.52;13.95;;;4.70;99.90;;;;;;5016761;28;20022;-85
2021/12/27 11:18:46;;;;;;;37.83;14.85;;;4.80;99.90;;;;;;5012727;28;20402;-86
2021/12/27 11:21:17;;;;;;;31.95;14.38;;;4.90;99.90;;;;;;5015031;28;20049;-84
2021/12/27 11:23:47;;;;;;;28.73;13.60;;;4.90;99.90;;;;;;5014182;28;20027;-86
2021/12/27 11:26:15;;;;;;;30.08;13.85;;;5.00;99.90;;;;;;5012491;28;20022;-84
2021/12/27 11:28:43;;;;;;;35.28;14.15;;;5.00;99.90;;;;;;5012093;28;20018;-85
2021/12/27 11:31:25;;;;;;;35.92;14.68;;;5.20;99.90;;;;;;5013165;28;20041;-81
2021/12/27 11:34:03;;;;;;;34.05;13.63;;;5.50;99.90;;;;;;5013576;28;20034;-86
2021/12/27 11:36:36;;;;;;;33.65;15.05;;;5.50;99.90;;;;;;5009720;28;20097;-86
2021/12/27 11:39:27;;;;;;;37.92;14.88;;;5.40;99.90;;;;;;4992908;28;20034;-86
2021/12/27 11:41:57;;;;;;;38.25;14.52;;;5.70;99.90;;;;;;5008234;28;20034;-86
2021/12/27 11:44:35;;;;;;;33.80;15.05;;;5.70;99.90;;;;;;5008061;28;20098;-83
2021/12/27 11:47:02;;;;;;;31.55;14.77;;;5.90;99.90;;;;;;5008612;28;20482;-84
2021/12/27 11:49:46;;;;;;;35.67;15.60;;;5.80;99.90;;;;;;5001406;28;20031;-84
2021/12/27 11:52:23;;;;;;;39.65;16.48;;;5.80;99.90;;;;;;4995092;28;20053;-82
2021/12/27 11:55:10;;;;;;;43.60;16.20;;;5.80;99.90;;;;;;4987989;28;20086;-83
2021/12/27 11:57:44;;;;;;;44.85;17.23;;;5.40;99.90;;;;;;4989173;28;20027;-82
2021/12/27 12:00:19;;;;;;;35.28;15.80;;;5.40;99.90;;;;;;4992695;28;20030;-84
2021/12/27 12:02:54;;;;;;;40.05;14.75;;;5.50;99.90;;;;;;5013941;28;20045;-81
2021/12/27 12:05:42;;;;;;;31.75;14.80;;;5.60;99.90;;;;;;5004309;28;20030;-83
2021/12/27 12:08:11;;;;;;;34.72;15.35;;;5.60;99.90;;;;;;5002630;28;20038;-82
2021/12/27 12:10:48;;;;;;;35.80;16.10;;;5.70;99.90;;;;;;4993767;28;20026;-83
2021/12/27 12:13:19;;;;;;;40.70;17.08;;;5.50;99.90;;;;;;5013196;28;20030;-83
2021/12/27 12:15:56;;;;;;;40.38;16.83;;;5.30;99.90;;;;;;5015974;28;20022;-85
2021/12/27 12:18:22;;;;;;;36.65;16.35;;;5.30;99.90;;;;;;5015244;28;20026;-83
2021/12/27 12:20:48;;;;;;;39.78;17.27;;;5.20;99.90;;;;;;5012531;28;20049;-85
2021/12/27 12:23:16;;;;;;;44.35;17.60;;;5.20;99.90;;;;;;4995609;28;20037;-86
2021/12/27 12:25:41;;;;;;;37.67;17.55;;;5.20;99.90;;;;;;5010846;28;20642;-85
2021/12/27 12:28:13;;;;;;;40.22;17.95;;;5.10;99.90;;;;;;5012839;28;20031;-84
2021/12/27 12:30:47;;;;;;;41.72;17.40;;;5.10;99.90;;;;;;5014840;28;20050;-88
2021/12/27 12:33:28;;;;;;;51.80;18.57;;;5.00;99.90;;;;;;5014719;28;20030;-87
2021/12/27 12:36:00;;;;;;;45.63;17.88;;;5.00;99.90;;;;;;5016380;28;20037;-86
2021/12/27 12:38:30;;;;;;;43.28;17.08;;;5.00;99.90;;;;;;4996843;28;20019;-85
2021/12/27 12:41:10;;;;;;;44.67;18.10;;;5.10;99.90;;;;;;4995013;28;20019;-85
2021/12/27 12:43:38;;;;;;;48.80;18.25;;;5.10;99.90;;;;;;5001097;28;20079;-87